CYPA

Prince Albert Glass Field Airport

Prince Albert, Saskatchewan, Canada
METAR CYPA 170200Z 26005KT 15SM SCT026 BKN043 OVC100 M01/M04 A2983 RMK SC4SC3AC1 SLP133
Observed Flight Rules
Dec-17 @ 02:00 UTC (24 minutes ago) Visual Flight Rules
Wind Visibility Clouds
260° at 5 knots 15 miles
  • Scattered at 2,600' AGL
  • Broken at 4,300' AGL
  • Overcast at 10,000' AGL
Temperatures Readings
Current -1°C / 30°F
Dewpoint -4°C / 25°F
Humidity 80%
Altimeter 29.83" Hg
Pressure 1013.3 hPa
Elevation 428
METAR CYPA 170200Z 26005KT 15SM SCT026 BKN043 OVC100 M01/M04 A2983 RMK SC4SC3AC1 SLP133
Observed Flight Rules
Dec-17 @ 02:00 UTC
(24 minutes ago)
VFR
Wind Visibility
260° at 5 knots 15 miles
Clouds
  • Scattered at 2,600' AGL
  • Broken at 4,300' AGL
  • Overcast at 10,000' AGL
Temperature Dewpoint
-1°C / 30°F -4°C / 25°F
Humidity Altimeter Pressure
80% 29.83" Hg 1013.3 hPa